Time;durP1;ratioP1;P1;durP2;ratioP2;P2;SDS_P1;SDS_P2;PMS_P1;PMS_P2;Temp;Humidity;BMP_temperature;BMP_pressure;BME280_temperature;BME280_humidity;BME280_pressure;Samples;Min_cycle;Max_cycle;Signal;HPM_P1;HPM_P2
2022/03/21 00:08:11;;;;;;;19.70;13.07;;;9.60;51.10;;;;;;21077074;28;20717;-65
2022/03/21 00:18:13;;;;;;;18.33;12.47;;;9.50;51.70;;;;;;21076871;28;20238;-65
2022/03/21 00:28:16;;;;;;;26.27;12.87;;;9.30;51.90;;;;;;21076153;28;20214;-64
2022/03/21 00:38:19;;;;;;;20.07;12.00;;;9.00;52.80;;;;;;21075517;28;20255;-65
2022/03/21 00:48:22;;;;;;;17.77;12.30;;;9.00;53.30;;;;;;21089794;28;20720;-65
2022/03/21 00:58:23;;;;;;;19.70;12.27;;;8.90;52.60;;;;;;21089727;28;20249;-64
2022/03/21 01:08:25;;;;;;;21.80;12.47;;;8.90;52.90;;;;;;21090152;28;20209;-67
2022/03/21 01:18:29;;;;;;;20.67;13.37;;;8.70;52.50;;;;;;21089046;28;20227;-63
2022/03/21 01:28:31;;;;;;;18.30;12.43;;;8.50;52.50;;;;;;21087319;28;20233;-63
2022/03/21 01:38:33;;;;;;;19.13;12.33;;;8.40;53.10;;;;;;21086470;28;20245;-67
2022/03/21 01:48:36;;;;;;;19.63;12.43;;;8.40;53.40;;;;;;21086082;28;20214;-63
2022/03/21 01:58:37;;;;;;;19.70;12.40;;;8.30;53.50;;;;;;21084870;28;20288;-64
2022/03/21 02:08:39;;;;;;;19.33;12.20;;;8.20;53.80;;;;;;21084268;28;20210;-63
2022/03/21 02:18:44;;;;;;;19.07;12.73;;;8.10;54.10;;;;;;21089420;28;20721;-64
2022/03/21 02:28:48;;;;;;;21.27;13.03;;;7.90;54.40;;;;;;21083057;28;20659;-64
2022/03/21 02:38:50;;;;;;;20.80;12.90;;;7.80;55.50;;;;;;21081647;28;20652;-67
2022/03/21 02:48:55;;;;;;;19.37;12.67;;;7.70;55.00;;;;;;21081468;28;20211;-65
2022/03/21 02:58:56;;;;;;;19.77;12.57;;;7.70;55.80;;;;;;21080158;28;20235;-63
2022/03/21 03:08:58;;;;;;;17.87;11.73;;;7.60;55.80;;;;;;21079619;28;20559;-64
2022/03/21 03:19:00;;;;;;;17.57;12.13;;;7.50;55.50;;;;;;21079446;28;20238;-71
2022/03/21 03:29:02;;;;;;;20.43;12.53;;;7.30;54.60;;;;;;21080846;28;20544;-64
2022/03/21 03:39:05;;;;;;;20.70;12.80;;;7.30;54.50;;;;;;21083669;28;20246;-62
2022/03/21 03:49:06;;;;;;;21.90;13.07;;;7.30;60.10;;;;;;21080933;28;20207;-66
2022/03/21 03:59:08;;;;;;;21.27;13.33;;;7.20;55.10;;;;;;21077332;28;20242;-63
2022/03/21 04:09:10;;;;;;;21.90;13.77;;;7.00;54.10;;;;;;21077101;28;20202;-65
2022/03/21 04:19:13;;;;;;;20.70;12.90;;;7.00;53.90;;;;;;21083524;28;20699;-64
2022/03/21 04:29:15;;;;;;;18.70;13.03;;;6.90;53.60;;;;;;21092615;28;20227;-63
2022/03/21 04:39:17;;;;;;;20.90;13.70;;;6.90;53.40;;;;;;21091450;28;20337;-63
2022/03/21 04:49:18;;;;;;;32.77;14.97;;;6.80;53.60;;;;;;21090565;28;20248;-63
2022/03/21 04:59:20;;;;;;;22.67;13.87;;;6.80;54.10;;;;;;21088832;28;20234;-64
2022/03/21 05:09:22;;;;;;;22.77;14.43;;;6.70;53.60;;;;;;21089138;28;20207;-63
2022/03/21 05:19:23;;;;;;;24.60;13.63;;;6.70;54.20;;;;;;21086778;28;20230;-65
2022/03/21 05:50:10;;;;;;;24.97;14.60;;;6.80;53.20;;;;;;21085906;28;20228;-65
2022/03/21 06:00:21;;;;;;;25.80;14.53;;;6.90;53.10;;;;;;21085309;28;20230;-66
2022/03/21 06:10:23;;;;;;;24.47;15.00;;;6.90;53.00;;;;;;21082696;28;20260;-65
2022/03/21 06:20:25;;;;;;;25.70;14.97;;;7.10;53.10;;;;;;21083612;28;20234;-69
2022/03/21 06:30:28;;;;;;;23.93;15.40;;;7.30;52.80;;;;;;21083118;28;20579;-63
2022/03/21 06:40:30;;;;;;;25.87;14.87;;;7.30;52.70;;;;;;21080641;28;20626;-65
2022/03/21 06:50:33;;;;;;;23.63;14.87;;;7.40;52.80;;;;;;21082860;28;20199;-65
2022/03/21 07:00:35;;;;;;;22.13;14.30;;;7.50;52.20;;;;;;21095498;28;20699;-64
2022/03/21 07:10:42;;;;;;;22.07;14.27;;;7.70;51.70;;;;;;21093218;28;20663;-63
2022/03/21 07:26:43;;;;;;;24.07;13.30;;;7.90;50.50;;;;;;21495090;27;20648;-64
2022/03/21 07:36:46;;;;;;;20.73;13.07;;;8.10;50.40;;;;;;21406798;27;20234;-63
2022/03/21 07:57:13;;;;;;;23.00;13.00;;;8.50;48.90;;;;;;21407302;27;20228;-64
2022/03/21 08:07:15;;;;;;;27.83;13.10;;;8.80;48.30;;;;;;21418700;27;20207;-64
2022/03/21 08:17:18;;;;;;;23.03;13.70;;;8.90;48.90;;;;;;21403081;27;20236;-65
2022/03/21 08:27:20;;;;;;;20.50;12.93;;;9.10;48.60;;;;;;21384259;27;20215;-65
2022/03/21 08:37:25;;;;;;;21.47;13.03;;;9.30;48.30;;;;;;21348644;27;20232;-64
2022/03/21 08:47:27;;;;;;;19.70;12.10;;;9.60;48.10;;;;;;21344283;27;20227;-64
2022/03/21 09:00:15;;;;;;;25.03;11.90;;;9.80;46.50;;;;;;21066907;27;21102;-63
2022/03/21 09:10:18;;;;;;;23.77;11.90;;;10.30;44.70;;;;;;21066810;28;20542;-65
2022/03/21 09:20:20;;;;;;;19.27;11.83;;;10.30;45.20;;;;;;21064993;28;20207;-65
2022/03/21 09:30:23;;;;;;;20.90;12.37;;;10.50;44.80;;;;;;21064390;28;20209;-64
2022/03/21 09:40:28;;;;;;;17.80;12.03;;;10.70;44.40;;;;;;21064128;28;20209;-68
2022/03/21 09:50:34;;;;;;;22.03;12.07;;;11.10;43.40;;;;;;21062842;28;20697;-64
2022/03/21 10:00:36;;;;;;;21.10;11.43;;;11.20;43.20;;;;;;21065882;28;20211;-65
2022/03/21 10:10:39;;;;;;;18.70;12.07;;;11.30;43.60;;;;;;21010091;28;20252;-68
2022/03/21 10:20:46;;;;;;;16.47;12.10;;;11.40;42.80;;;;;;21004203;28;20209;-70
2022/03/21 10:30:48;;;;;;;17.80;11.73;;;11.80;41.80;;;;;;21003539;28;20233;-67
2022/03/21 10:40:49;;;;;;;17.97;12.40;;;11.90;42.30;;;;;;21003168;28;20643;-64
2022/03/21 10:50:53;;;;;;;16.67;11.83;;;12.10;42.10;;;;;;21001179;28;20238;-64
2022/03/21 11:00:55;;;;;;;20.40;12.20;;;12.20;41.80;;;;;;21000965;28;20260;-63
2022/03/21 11:10:57;;;;;;;19.30;11.80;;;12.50;41.90;;;;;;21000509;28;20231;-65
2022/03/21 11:21:00;;;;;;;19.63;11.80;;;12.70;41.10;;;;;;20997439;28;20616;-65
2022/03/21 11:31:31;;;;;;;17.60;12.03;;;12.80;40.90;;;;;;21000030;28;20241;-64
2022/03/21 11:41:33;;;;;;;17.77;11.73;;;13.10;40.00;;;;;;21009697;28;20217;-63
2022/03/21 11:51:40;;;;;;;20.30;11.53;;;13.20;40.40;;;;;;20996152;28;20248;-66
2022/03/21 12:01:42;;;;;;;14.43;10.73;;;13.40;40.00;;;;;;20995022;28;20208;-65
2022/03/21 12:11:47;;;;;;;18.20;11.30;;;13.60;39.50;;;;;;20995182;28;20245;-66
2022/03/21 12:22:27;;;;;;;14.00;10.37;;;13.90;39.10;;;;;;20994266;28;20289;-66
2022/03/21 12:32:28;;;;;;;16.03;10.53;;;14.30;38.50;;;;;;20993850;28;20248;-69
2022/03/21 12:42:31;;;;;;;14.37;10.23;;;14.60;37.70;;;;;;20993576;28;20603;-69
2022/03/21 12:52:34;;;;;;;13.10;9.90;;;15.00;37.50;;;;;;20992843;28;20678;-64
2022/03/21 13:02:35;;;;;;;15.07;10.10;;;15.40;35.40;;;;;;20993995;28;20206;-64
2022/03/21 13:12:38;;;;;;;14.97;10.87;;;15.70;34.90;;;;;;20993211;28;20235;-66
2022/03/21 13:22:40;;;;;;;13.17;9.37;;;15.70;35.00;;;;;;20992314;28;20283;-65
2022/03/21 13:32:44;;;;;;;15.73;10.23;;;16.10;34.50;;;;;;20992025;28;20231;-66
2022/03/21 13:42:46;;;;;;;14.93;10.10;;;16.40;33.90;;;;;;21000711;28;20209;-64
2022/03/21 13:52:51;;;;;;;16.00;10.80;;;16.60;33.70;;;;;;21005969;28;20241;-63
2022/03/21 14:02:53;;;;;;;15.13;10.83;;;16.80;33.90;;;;;;21005695;28;20248;-69
2022/03/21 14:12:55;;;;;;;15.30;10.10;;;17.00;33.70;;;;;;21005386;28;20734;-68
2022/03/21 14:22:56;;;;;;;16.00;10.73;;;17.20;33.30;;;;;;21003407;28;20679;-64
2022/03/21 14:32:58;;;;;;;19.60;10.87;;;17.60;32.80;;;;;;21003895;28;20258;-65
2022/03/21 14:43:00;;;;;;;15.87;10.47;;;18.40;32.80;;;;;;21002388;28;20268;-66
2022/03/21 14:53:02;;;;;;;20.30;10.33;;;18.90;32.80;;;;;;21002064;28;20307;-65
2022/03/21 15:03:04;;;;;;;15.27;9.70;;;18.90;32.60;;;;;;21001351;28;20299;-63
2022/03/21 15:13:08;;;;;;;14.73;11.00;;;20.20;32.00;;;;;;21001288;28;20565;-66
2022/03/21 15:23:09;;;;;;;19.47;12.23;;;20.00;31.20;;;;;;21000742;28;20572;-62
2022/03/21 15:33:11;;;;;;;13.23;9.83;;;19.50;30.00;;;;;;20999163;28;20650;-67
2022/03/21 15:43:14;;;;;;;14.90;10.77;;;19.10;30.80;;;;;;20997343;28;20446;-63
2022/03/21 15:53:15;;;;;;;17.40;9.83;;;18.80;30.40;;;;;;20997286;28;20236;-63
2022/03/21 16:03:18;;;;;;;12.80;9.17;;;18.10;30.90;;;;;;20996711;28;20226;-67
2022/03/21 16:13:21;;;;;;;19.90;10.60;;;17.50;31.10;;;;;;20998022;28;20604;-69
2022/03/21 16:23:22;;;;;;;15.40;10.10;;;16.90;31.10;;;;;;20996911;28;20211;-69
2022/03/21 16:33:26;;;;;;;16.50;11.00;;;16.80;31.60;;;;;;21006641;28;20260;-62
2022/03/21 16:43:28;;;;;;;15.07;9.93;;;16.40;32.20;;;;;;20994702;28;20248;-64
2022/03/21 16:53:30;;;;;;;20.13;9.93;;;16.30;32.30;;;;;;20993419;28;20246;-63
2022/03/21 17:03:32;;;;;;;16.50;10.13;;;16.00;33.00;;;;;;20993420;28;20207;-67
2022/03/21 17:13:35;;;;;;;15.70;11.00;;;15.70;33.30;;;;;;20996203;28;20742;-67
2022/03/21 17:23:36;;;;;;;21.00;12.13;;;15.30;34.00;;;;;;21008927;28;20715;-68
2022/03/21 17:33:38;;;;;;;22.47;13.50;;;14.70;35.70;;;;;;21007968;28;20276;-68
2022/03/21 17:43:40;;;;;;;18.97;12.17;;;14.50;36.00;;;;;;21008131;28;20207;-69
2022/03/21 17:53:41;;;;;;;21.90;12.30;;;14.20;37.30;;;;;;20993678;28;20243;-74
2022/03/21 18:03:43;;;;;;;19.00;12.83;;;13.90;38.00;;;;;;20970817;28;20260;-72
2022/03/21 18:13:46;;;;;;;24.27;14.63;;;13.10;39.10;;;;;;20948777;28;20281;-72
2022/03/21 18:23:48;;;;;;;23.53;13.50;;;13.10;39.70;;;;;;20921701;28;20570;-73
2022/03/21 18:33:50;;;;;;;25.33;13.97;;;12.70;40.80;;;;;;20924336;28;20236;-75
2022/03/21 18:43:53;;;;;;;25.17;14.50;;;12.40;42.10;;;;;;20965316;28;20663;-72
2022/03/21 18:53:54;;;;;;;33.37;17.03;;;11.90;42.60;;;;;;20990691;28;20243;-73
2022/03/21 19:03:56;;;;;;;30.10;17.63;;;11.70;43.60;;;;;;21002567;28;20683;-77
2022/03/21 19:14:01;;;;;;;22.80;15.10;;;11.40;44.10;;;;;;20985007;28;20235;-76
2022/03/21 19:24:04;;;;;;;23.47;16.13;;;11.00;44.40;;;;;;20974223;28;20739;-77
2022/03/21 19:34:06;;;;;;;33.00;16.07;;;10.70;45.10;;;;;;20955534;28;20238;-75
2022/03/21 19:44:07;;;;;;;25.93;16.33;;;10.30;45.90;;;;;;20915814;28;20200;-77
2022/03/21 19:54:09;;;;;;;30.27;16.77;;;10.40;46.50;;;;;;20915092;28;20289;-77
2022/03/21 20:04:11;;;;;;;30.57;15.77;;;9.90;47.50;;;;;;20914650;28;20203;-78
2022/03/21 20:14:13;;;;;;;26.43;15.73;;;9.90;47.70;;;;;;20914124;28;20233;-79
2022/03/21 20:24:14;;;;;;;33.93;16.27;;;9.40;49.10;;;;;;20914055;28;20544;-76
2022/03/21 20:34:16;;;;;;;29.17;16.90;;;9.40;49.80;;;;;;20912601;28;20231;-79
2022/03/21 20:44:18;;;;;;;23.97;15.33;;;9.10;49.40;;;;;;20912540;28;20211;-75
2022/03/21 20:54:20;;;;;;;22.80;14.37;;;8.70;50.00;;;;;;20909976;28;20333;-75
2022/03/21 21:04:22;;;;;;;24.70;15.17;;;8.50;50.30;;;;;;20911306;28;20209;-76
2022/03/21 21:14:23;;;;;;;22.97;14.60;;;8.40;51.00;;;;;;20988403;28;20233;-74
2022/03/21 21:24:25;;;;;;;22.60;14.20;;;8.40;51.10;;;;;;21010701;28;20225;-72
2022/03/21 21:34:27;;;;;;;22.90;13.40;;;8.10;50.80;;;;;;20995090;28;20241;-76
2022/03/21 21:44:29;;;;;;;19.50;13.13;;;7.90;50.90;;;;;;20997015;28;20673;-77
2022/03/21 21:54:31;;;;;;;21.27;13.30;;;7.90;50.80;;;;;;20998131;28;20232;-77
2022/03/21 22:04:33;;;;;;;24.70;13.77;;;7.80;51.30;;;;;;21002533;28;20205;-75
2022/03/21 22:14:35;;;;;;;25.47;14.90;;;7.80;51.70;;;;;;20938114;28;20692;-77
2022/03/21 22:24:37;;;;;;;26.23;14.13;;;7.60;51.50;;;;;;20929002;28;20206;-76
2022/03/21 22:34:39;;;;;;;27.10;14.80;;;7.30;51.90;;;;;;20934282;28;20236;-77
2022/03/21 22:55:12;;;;;;;21.67;13.53;;;7.00;52.30;;;;;;21032873;28;20568;-76
2022/03/21 23:05:13;;;;;;;20.87;13.50;;;6.90;52.40;;;;;;21086230;28;20260;-76
2022/03/21 23:15:17;;;;;;;21.47;13.00;;;6.80;52.60;;;;;;21069696;28;20288;-75
2022/03/21 23:25:19;;;;;;;18.63;13.00;;;6.80;53.00;;;;;;20991147;28;20252;-76
2022/03/21 23:35:21;;;;;;;22.97;13.10;;;6.60;52.90;;;;;;20998633;28;20684;-75
2022/03/21 23:45:22;;;;;;;21.03;12.87;;;6.60;53.50;;;;;;20999437;28;20652;-74
2022/03/21 23:55:26;;;;;;;21.47;13.40;;;6.40;53.70;;;;;;20997978;28;20296;-74
